Time;durP1;ratioP1;P1;durP2;ratioP2;P2;SDS_P1;SDS_P2;PMS_P1;PMS_P2;Temp;Humidity;BMP_temperature;BMP_pressure;BME280_temperature;BME280_humidity;BME280_pressure;Samples;Min_cycle;Max_cycle;Signal;HPM_P1;HPM_P2
2023/05/27 00:02:15;;;;;;;77.97;57.40;;;;;;;;;;5063542;28;20024;-68
2023/05/27 00:04:42;;;;;;;64.63;48.65;;;;;;;;;;5063766;28;20041;-68
2023/05/27 00:07:08;;;;;;;67.95;47.75;;;;;;;;;;5064857;28;20020;-68
2023/05/27 00:09:35;;;;;;;62.70;47.97;;;;;;;;;;5065586;28;20016;-67
2023/05/27 00:12:02;;;;;;;91.25;67.50;;;;;;;;;;5060124;28;20037;-67
2023/05/27 00:14:28;;;;;;;90.50;64.50;;;;;;;;;;5052984;28;20028;-66
2023/05/27 00:16:56;;;;;;;94.00;68.38;;;;;;;;;;5052104;28;20017;-67
2023/05/27 00:19:24;;;;;;;83.13;57.03;;;;;;;;;;5052870;28;20021;-69
2023/05/27 00:21:53;;;;;;;106.85;78.65;;;;;;;;;;5052559;28;20118;-68
2023/05/27 00:24:20;;;;;;;72.35;52.75;;;;;;;;;;5052703;28;20077;-67
2023/05/27 00:26:46;;;;;;;73.63;53.38;;;;;;;;;;5052627;28;20013;-67
2023/05/27 00:29:13;;;;;;;65.60;48.80;;;;;;;;;;5053189;28;20032;-67
2023/05/27 00:31:40;;;;;;;72.75;47.83;;;;;;;;;;5052968;28;20367;-67
2023/05/27 00:34:07;;;;;;;72.63;49.30;;;;;;;;;;5051612;28;20024;-65
2023/05/27 00:36:33;;;;;;;75.15;51.58;;;;;;;;;;5052747;28;20266;-65
2023/05/27 00:39:01;;;;;;;76.40;52.22;;;;;;;;;;5052856;28;20025;-66
2023/05/27 00:41:28;;;;;;;88.22;55.35;;;;;;;;;;5052747;28;20083;-65
2023/05/27 00:43:56;;;;;;;77.93;53.78;;;;;;;;;;5053519;28;20047;-66
2023/05/27 00:46:23;;;;;;;68.60;50.63;;;;;;;;;;5053636;28;20021;-67
2023/05/27 00:48:50;;;;;;;69.97;51.00;;;;;;;;;;5054166;28;20029;-65
2023/05/27 00:51:16;;;;;;;61.08;46.67;;;;;;;;;;5054239;28;20024;-66
2023/05/27 00:53:44;;;;;;;226.27;165.57;;;;;;;;;;5054346;28;20536;-67
2023/05/27 00:56:12;;;;;;;88.88;63.63;;;;;;;;;;5054158;28;20039;-66
2023/05/27 00:58:39;;;;;;;85.43;58.03;;;;;;;;;;5054238;28;20100;-66
2023/05/27 01:01:07;;;;;;;65.95;49.13;;;;;;;;;;5056613;28;20025;-66
2023/05/27 01:03:34;;;;;;;61.58;46.47;;;;;;;;;;5060549;28;20039;-66
2023/05/27 01:06:09;;;;;;;70.82;47.72;;;;;;;;;;5064361;28;20028;-66
2023/05/27 01:08:41;;;;;;;69.20;47.90;;;;;;;;;;5073968;28;20050;-67
2023/05/27 01:11:09;;;;;;;73.45;48.53;;;;;;;;;;5073722;28;20052;-68
2023/05/27 01:13:38;;;;;;;72.15;52.60;;;;;;;;;;5073856;28;20558;-67
2023/05/27 01:16:09;;;;;;;79.82;53.53;;;;;;;;;;5073733;28;20020;-67
2023/05/27 01:18:36;;;;;;;72.05;53.35;;;;;;;;;;5073798;28;20473;-65
2023/05/27 01:21:07;;;;;;;70.60;49.25;;;;;;;;;;5073740;28;20090;-66
2023/05/27 01:23:34;;;;;;;66.47;48.90;;;;;;;;;;5073495;28;20040;-66
2023/05/27 01:26:01;;;;;;;68.57;49.35;;;;;;;;;;5073760;28;20024;-67
2023/05/27 01:28:27;;;;;;;68.93;48.47;;;;;;;;;;5064516;28;20016;-66
2023/05/27 01:30:56;;;;;;;63.95;50.05;;;;;;;;;;5068606;28;20032;-66
2023/05/27 01:33:26;;;;;;;62.22;49.00;;;;;;;;;;5073671;28;20130;-65
2023/05/27 01:35:56;;;;;;;72.75;52.10;;;;;;;;;;5073668;28;20481;-65
2023/05/27 01:38:25;;;;;;;66.25;49.15;;;;;;;;;;5073566;28;20082;-66
2023/05/27 01:40:54;;;;;;;70.10;48.03;;;;;;;;;;5055089;28;20027;-67
2023/05/27 01:43:21;;;;;;;68.88;49.83;;;;;;;;;;5053399;28;20029;-67
2023/05/27 01:45:48;;;;;;;70.72;52.17;;;;;;;;;;5053046;28;20137;-66
2023/05/27 01:48:15;;;;;;;73.75;52.92;;;;;;;;;;5053403;28;20033;-66
2023/05/27 01:50:41;;;;;;;75.32;50.13;;;;;;;;;;5053160;28;20029;-66
2023/05/27 01:53:08;;;;;;;79.43;52.70;;;;;;;;;;5053081;28;20099;-67
2023/05/27 01:55:35;;;;;;;85.45;55.08;;;;;;;;;;5053192;28;20500;-67
2023/05/27 01:58:02;;;;;;;68.88;50.63;;;;;;;;;;5053321;28;20025;-68
2023/05/27 02:00:29;;;;;;;75.85;52.97;;;;;;;;;;5053081;28;20086;-68
2023/05/27 02:02:56;;;;;;;76.13;52.67;;;;;;;;;;5053157;28;20033;-67
2023/05/27 02:05:24;;;;;;;68.18;49.88;;;;;;;;;;5053173;28;20528;-67
2023/05/27 02:07:51;;;;;;;61.33;48.25;;;;;;;;;;5052914;28;20083;-66
2023/05/27 02:10:18;;;;;;;60.15;48.05;;;;;;;;;;5052823;28;20386;-67
2023/05/27 02:12:44;;;;;;;67.20;49.97;;;;;;;;;;5053133;28;20029;-67
2023/05/27 02:15:11;;;;;;;69.35;57.33;;;;;;;;;;5052902;28;20100;-67
2023/05/27 02:17:38;;;;;;;79.00;56.72;;;;;;;;;;5053049;28;20029;-67
2023/05/27 02:20:05;;;;;;;69.22;50.40;;;;;;;;;;5052893;28;20029;-68
2023/05/27 02:22:32;;;;;;;68.55;50.05;;;;;;;;;;5052714;28;20028;-67
2023/05/27 02:24:59;;;;;;;65.70;47.30;;;;;;;;;;5052886;28;20025;-66
2023/05/27 02:27:25;;;;;;;58.80;45.63;;;;;;;;;;5052729;28;20021;-67
2023/05/27 02:29:52;;;;;;;54.85;41.95;;;;;;;;;;5052694;28;20017;-67
2023/05/27 02:32:19;;;;;;;80.97;58.63;;;;;;;;;;5052901;28;20146;-68
2023/05/27 02:34:46;;;;;;;71.90;47.72;;;;;;;;;;5052886;28;20025;-67
2023/05/27 02:37:12;;;;;;;63.78;43.95;;;;;;;;;;5052670;28;20028;-67
2023/05/27 02:39:39;;;;;;;54.90;41.97;;;;;;;;;;5053193;28;20021;-67
2023/05/27 02:42:07;;;;;;;56.85;41.47;;;;;;;;;;5052703;28;20061;-68
2023/05/27 02:44:33;;;;;;;53.97;42.10;;;;;;;;;;5052604;28;20029;-67
2023/05/27 02:47:00;;;;;;;58.38;43.38;;;;;;;;;;5052599;28;20029;-70
2023/05/27 02:49:27;;;;;;;63.63;43.30;;;;;;;;;;5052690;28;20020;-70
2023/05/27 02:51:53;;;;;;;56.40;42.60;;;;;;;;;;5052488;28;20025;-70
2023/05/27 02:54:20;;;;;;;54.03;42.08;;;;;;;;;;5052700;28;20477;-67
2023/05/27 02:56:47;;;;;;;51.47;41.17;;;;;;;;;;5053148;28;20075;-67
2023/05/27 02:59:13;;;;;;;56.35;43.50;;;;;;;;;;5056333;28;20052;-68
2023/05/27 03:01:40;;;;;;;60.22;44.20;;;;;;;;;;5056412;28;20068;-67
2023/05/27 03:04:07;;;;;;;61.60;44.45;;;;;;;;;;5056282;28;20025;-67
2023/05/27 03:06:35;;;;;;;56.65;42.92;;;;;;;;;;5056460;28;20063;-68
2023/05/27 03:09:02;;;;;;;66.43;44.67;;;;;;;;;;5056324;28;20025;-68
2023/05/27 03:11:29;;;;;;;58.97;45.00;;;;;;;;;;5056042;28;20116;-68
2023/05/27 03:13:56;;;;;;;61.92;42.85;;;;;;;;;;5056070;28;20517;-70
2023/05/27 03:16:24;;;;;;;58.50;44.67;;;;;;;;;;5056169;28;20036;-67
2023/05/27 03:18:51;;;;;;;57.72;42.33;;;;;;;;;;5071070;28;20025;-67
2023/05/27 03:21:18;;;;;;;61.30;44.78;;;;;;;;;;5075895;28;20470;-67
2023/05/27 03:23:45;;;;;;;58.10;44.40;;;;;;;;;;5075969;28;20539;-67
2023/05/27 03:26:11;;;;;;;64.55;46.22;;;;;;;;;;5076085;28;20070;-67
2023/05/27 03:28:38;;;;;;;61.30;44.50;;;;;;;;;;5076246;28;20431;-67
2023/05/27 03:31:05;;;;;;;54.88;42.10;;;;;;;;;;5076085;28;20073;-66
2023/05/27 03:33:32;;;;;;;56.60;43.13;;;;;;;;;;5075735;28;20024;-67
2023/05/27 03:35:58;;;;;;;53.83;43.40;;;;;;;;;;5075859;28;20016;-67
2023/05/27 03:38:25;;;;;;;64.55;45.38;;;;;;;;;;5075567;28;20477;-67
2023/05/27 03:40:52;;;;;;;59.33;42.95;;;;;;;;;;5075683;28;20028;-66
2023/05/27 03:43:19;;;;;;;57.20;43.13;;;;;;;;;;5075517;28;20032;-67
2023/05/27 03:45:46;;;;;;;50.60;39.60;;;;;;;;;;5075483;28;20025;-67
2023/05/27 03:48:12;;;;;;;51.53;40.42;;;;;;;;;;5075661;28;20028;-66
2023/05/27 03:50:39;;;;;;;47.00;36.88;;;;;;;;;;5075344;28;20031;-66
2023/05/27 03:53:06;;;;;;;44.63;36.78;;;;;;;;;;5075215;28;20017;-66
2023/05/27 03:55:33;;;;;;;52.58;38.15;;;;;;;;;;5075300;28;20077;-66
2023/05/27 03:57:59;;;;;;;47.55;39.58;;;;;;;;;;5075321;28;20067;-66
2023/05/27 04:00:28;;;;;;;50.80;37.83;;;;;;;;;;5075381;28;20032;-66
2023/05/27 04:02:56;;;;;;;65.70;49.50;;;;;;;;;;5075187;28;20039;-66
2023/05/27 04:05:22;;;;;;;61.63;47.78;;;;;;;;;;5075205;28;20489;-67
2023/05/27 04:07:49;;;;;;;62.30;46.40;;;;;;;;;;5074931;28;20027;-67
2023/05/27 04:10:16;;;;;;;58.40;45.05;;;;;;;;;;5074828;28;20048;-67
2023/05/27 04:12:43;;;;;;;55.97;41.67;;;;;;;;;;5074871;28;20035;-67
2023/05/27 04:15:10;;;;;;;48.67;40.10;;;;;;;;;;5074862;28;20024;-66
2023/05/27 04:17:36;;;;;;;48.42;37.72;;;;;;;;;;5074882;28;20412;-66
2023/05/27 04:20:24;;;;;;;57.78;40.08;;;;;;;;;;5074820;28;20020;-67
2023/05/27 04:22:50;;;;;;;48.90;38.97;;;;;;;;;;5074466;28;20028;-66
2023/05/27 04:25:16;;;;;;;50.78;39.72;;;;;;;;;;5074778;28;20027;-67
2023/05/27 04:27:43;;;;;;;53.03;41.83;;;;;;;;;;5074553;28;20551;-66
2023/05/27 04:30:10;;;;;;;47.42;36.92;;;;;;;;;;5074662;28;20060;-67
2023/05/27 04:32:37;;;;;;;48.10;37.58;;;;;;;;;;5074595;28;20102;-66
2023/05/27 04:35:08;;;;;;;50.20;39.70;;;;;;;;;;5074392;28;20393;-67
2023/05/27 04:37:40;;;;;;;43.20;37.13;;;;;;;;;;5074563;28;20020;-67
2023/05/27 04:40:09;;;;;;;42.38;37.25;;;;;;;;;;5074479;28;20024;-66
2023/05/27 04:42:36;;;;;;;47.75;39.25;;;;;;;;;;5074228;28;20389;-67
2023/05/27 04:45:03;;;;;;;46.10;38.35;;;;;;;;;;5074451;28;20533;-67
2023/05/27 04:47:30;;;;;;;45.35;38.13;;;;;;;;;;5074335;28;20055;-67
2023/05/27 04:49:57;;;;;;;49.85;37.40;;;;;;;;;;5074213;28;20147;-67
2023/05/27 04:52:24;;;;;;;49.47;35.60;;;;;;;;;;5074485;28;20023;-67
2023/05/27 04:54:50;;;;;;;49.85;37.05;;;;;;;;;;5074299;28;20029;-67
2023/05/27 04:57:18;;;;;;;45.65;35.50;;;;;;;;;;5073995;28;20020;-67
2023/05/27 05:02:38;;;;;;;40.97;33.50;;;;;;;;;;5072058;28;20036;-67
2023/05/27 05:05:06;;;;;;;34.22;30.63;;;;;;;;;;5074285;28;20039;-67
2023/05/27 05:07:34;;;;;;;36.83;32.42;;;;;;;;;;5074003;28;20028;-67
2023/05/27 05:10:00;;;;;;;43.40;33.05;;;;;;;;;;5073488;28;20074;-66
2023/05/27 05:12:27;;;;;;;44.00;35.65;;;;;;;;;;5073923;28;20032;-66
2023/05/27 05:14:54;;;;;;;42.45;33.58;;;;;;;;;;5073908;28;20054;-67
2023/05/27 05:17:23;;;;;;;52.42;34.65;;;;;;;;;;5073479;28;20108;-66
2023/05/27 05:19:51;;;;;;;43.05;33.88;;;;;;;;;;5069509;28;20104;-66
2023/05/27 05:22:19;;;;;;;40.55;34.35;;;;;;;;;;5073566;28;20103;-67
2023/05/27 05:24:46;;;;;;;40.78;33.20;;;;;;;;;;5072009;28;20025;-67
2023/05/27 05:27:13;;;;;;;45.97;34.95;;;;;;;;;;5071867;28;20024;-67
2023/05/27 05:29:40;;;;;;;40.33;35.03;;;;;;;;;;5072852;28;20027;-67
2023/05/27 05:32:08;;;;;;;50.83;36.80;;;;;;;;;;5072963;28;20358;-67
2023/05/27 05:34:35;;;;;;;65.40;57.55;;;;;;;;;;5073081;28;20029;-67
2023/05/27 05:37:02;;;;;;;56.63;45.15;;;;;;;;;;5073211;28;20028;-66
2023/05/27 05:39:28;;;;;;;74.10;52.08;;;;;;;;;;5073531;28;20043;-67
2023/05/27 05:41:57;;;;;;;64.97;49.70;;;;;;;;;;5073732;28;20028;-65
2023/05/27 05:44:24;;;;;;;48.13;36.63;;;;;;;;;;5073337;28;20031;-66
2023/05/27 05:46:51;;;;;;;54.38;36.72;;;;;;;;;;5073470;28;20081;-66
2023/05/27 05:49:18;;;;;;;42.28;36.90;;;;;;;;;;5073532;28;20028;-66
2023/05/27 05:51:45;;;;;;;42.13;34.33;;;;;;;;;;5073164;28;20438;-67
2023/05/27 05:54:12;;;;;;;52.22;44.53;;;;;;;;;;5073278;28;20027;-67
2023/05/27 05:56:39;;;;;;;89.43;63.53;;;;;;;;;;5073255;28;20075;-67
2023/05/27 05:59:06;;;;;;;95.28;71.25;;;;;;;;;;5073139;28;20112;-66
2023/05/27 06:01:32;;;;;;;71.40;57.22;;;;;;;;;;5072970;28;20024;-68
2023/05/27 06:04:03;;;;;;;50.33;36.72;;;;;;;;;;5073097;28;20026;-68
2023/05/27 06:06:31;;;;;;;45.20;36.17;;;;;;;;;;5071679;28;20029;-67
2023/05/27 06:08:57;;;;;;;43.50;33.42;;;;;;;;;;5067700;28;20050;-67
2023/05/27 06:11:26;;;;;;;40.17;33.15;;;;;;;;;;5061423;28;20047;-67
2023/05/27 06:13:52;;;;;;;39.97;33.22;;;;;;;;;;5058440;28;20061;-67
2023/05/27 06:16:19;;;;;;;46.83;34.88;;;;;;;;;;5060981;28;20066;-67
2023/05/27 06:18:46;;;;;;;40.72;33.95;;;;;;;;;;5059601;28;20508;-71
2023/05/27 06:21:13;;;;;;;39.80;33.05;;;;;;;;;;5061514;28;20028;-67
2023/05/27 06:23:40;;;;;;;42.58;34.53;;;;;;;;;;5060887;28;20021;-66
2023/05/27 06:26:06;;;;;;;48.95;39.58;;;;;;;;;;5058772;28;20036;-71
2023/05/27 06:28:33;;;;;;;54.35;42.45;;;;;;;;;;5059063;28;20024;-66
2023/05/27 06:31:00;;;;;;;51.03;37.25;;;;;;;;;;5064662;28;20121;-66
2023/05/27 06:33:26;;;;;;;51.42;39.00;;;;;;;;;;5062528;28;20021;-67
2023/05/27 06:35:53;;;;;;;56.05;42.00;;;;;;;;;;5065204;28;20029;-67
2023/05/27 06:38:20;;;;;;;51.85;40.72;;;;;;;;;;5064795;28;20017;-67
2023/05/27 06:40:47;;;;;;;45.80;35.55;;;;;;;;;;5063453;28;20453;-67
2023/05/27 06:43:13;;;;;;;50.75;36.25;;;;;;;;;;5065532;28;20165;-66
2023/05/27 06:45:40;;;;;;;42.72;35.13;;;;;;;;;;5063809;28;20362;-66
2023/05/27 06:48:07;;;;;;;45.97;35.95;;;;;;;;;;5065974;28;20388;-67
2023/05/27 06:50:34;;;;;;;41.65;30.27;;;;;;;;;;5063924;28;20029;-67
2023/05/27 06:53:01;;;;;;;37.15;29.13;;;;;;;;;;5065132;28;20029;-66
2023/05/27 06:55:27;;;;;;;41.65;30.08;;;;;;;;;;5062974;28;20444;-67
2023/05/27 06:57:54;;;;;;;44.75;33.15;;;;;;;;;;5063601;28;20053;-68
2023/05/27 07:00:21;;;;;;;38.60;27.48;;;;;;;;;;5064114;28;20048;-68
2023/05/27 07:02:47;;;;;;;38.75;27.85;;;;;;;;;;5064907;28;20028;-66
2023/05/27 07:05:14;;;;;;;38.08;27.90;;;;;;;;;;5074919;28;20029;-65
2023/05/27 07:07:41;;;;;;;37.97;27.13;;;;;;;;;;5066672;28;20029;-66
2023/05/27 07:10:08;;;;;;;30.73;24.73;;;;;;;;;;5063892;28;20554;-66
2023/05/27 07:12:35;;;;;;;39.35;31.02;;;;;;;;;;5063030;28;20104;-65
2023/05/27 07:15:01;;;;;;;36.17;27.90;;;;;;;;;;5063705;28;20020;-65
2023/05/27 07:17:28;;;;;;;29.73;26.20;;;;;;;;;;5064777;28;20024;-65
2023/05/27 07:19:55;;;;;;;30.90;25.65;;;;;;;;;;5064764;28;20447;-66
2023/05/27 07:22:21;;;;;;;48.17;41.50;;;;;;;;;;5064156;28;20048;-65
2023/05/27 07:24:48;;;;;;;45.55;32.85;;;;;;;;;;5062763;28;20032;-65
2023/05/27 07:27:15;;;;;;;33.88;27.95;;;;;;;;;;5064586;28;20035;-66
2023/05/27 07:29:42;;;;;;;35.35;29.25;;;;;;;;;;5063432;28;20022;-66
2023/05/27 07:32:08;;;;;;;33.67;26.92;;;;;;;;;;5062625;28;20039;-65
2023/05/27 07:34:35;;;;;;;34.78;25.88;;;;;;;;;;5064544;28;20377;-66
2023/05/27 07:37:02;;;;;;;33.13;26.30;;;;;;;;;;5063408;28;20017;-65
2023/05/27 07:39:29;;;;;;;34.17;27.73;;;;;;;;;;5061928;28;20609;-67
2023/05/27 07:41:55;;;;;;;35.47;27.60;;;;;;;;;;5063054;28;20390;-66
2023/05/27 07:44:22;;;;;;;40.60;27.98;;;;;;;;;;5062773;28;20024;-65
2023/05/27 07:46:49;;;;;;;40.92;34.33;;;;;;;;;;5063988;28;20394;-66
2023/05/27 07:49:16;;;;;;;31.88;27.35;;;;;;;;;;5061948;28;20107;-66
2023/05/27 07:51:42;;;;;;;31.60;26.23;;;;;;;;;;5063176;28;20035;-66
2023/05/27 07:54:09;;;;;;;32.30;26.60;;;;;;;;;;5061656;28;20530;-66
2023/05/27 07:56:36;;;;;;;35.90;30.08;;;;;;;;;;5060905;28;20367;-66
2023/05/27 07:59:03;;;;;;;76.53;47.90;;;;;;;;;;5061667;28;20450;-66
2023/05/27 08:01:32;;;;;;;54.60;41.78;;;;;;;;;;5062207;28;20036;-66
2023/05/27 08:03:59;;;;;;;37.97;29.77;;;;;;;;;;5063569;28;20104;-66
2023/05/27 08:06:26;;;;;;;35.50;30.05;;;;;;;;;;5063022;28;20032;-65
2023/05/27 08:08:53;;;;;;;36.63;28.70;;;;;;;;;;5061119;28;20060;-66
2023/05/27 08:11:20;;;;;;;41.38;28.85;;;;;;;;;;5063019;28;20076;-65
2023/05/27 08:13:47;;;;;;;34.53;25.98;;;;;;;;;;5062414;28;20029;-66
2023/05/27 08:16:13;;;;;;;34.75;26.40;;;;;;;;;;5063427;28;20024;-66
2023/05/27 08:18:40;;;;;;;36.33;28.30;;;;;;;;;;5060444;28;20032;-65
2023/05/27 08:21:07;;;;;;;77.95;54.20;;;;;;;;;;5059112;28;20036;-65
2023/05/27 08:23:33;;;;;;;35.03;25.27;;;;;;;;;;5059859;28;20477;-65
2023/05/27 08:26:00;;;;;;;36.47;28.27;;;;;;;;;;5061591;28;20108;-64
2023/05/27 08:28:27;;;;;;;35.63;25.60;;;;;;;;;;5062201;28;20046;-63
2023/05/27 08:30:54;;;;;;;30.98;24.90;;;;;;;;;;5065743;28;20032;-64
2023/05/27 08:33:21;;;;;;;36.08;25.27;;;;;;;;;;5064606;28;20044;-64
2023/05/27 08:35:48;;;;;;;31.33;26.38;;;;;;;;;;5064211;28;20020;-64
2023/05/27 08:38:14;;;;;;;32.00;26.27;;;;;;;;;;5065545;28;20449;-64
2023/05/27 08:40:41;;;;;;;42.63;33.63;;;;;;;;;;5064357;28;20017;-65
2023/05/27 08:43:08;;;;;;;51.17;36.90;;;;;;;;;;5063317;28;20025;-64
2023/05/27 08:45:35;;;;;;;37.13;29.15;;;;;;;;;;5064862;28;20058;-64
2023/05/27 08:48:02;;;;;;;35.72;26.80;;;;;;;;;;5063997;28;20025;-64
2023/05/27 08:50:29;;;;;;;35.55;25.95;;;;;;;;;;5063515;28;20032;-64
2023/05/27 08:52:56;;;;;;;30.60;24.60;;;;;;;;;;5063704;28;20099;-63
2023/05/27 08:55:23;;;;;;;64.70;51.83;;;;;;;;;;5063529;28;20070;-65
2023/05/27 08:57:53;;;;;;;46.75;33.03;;;;;;;;;;5062138;28;20144;-67
2023/05/27 09:00:20;;;;;;;52.47;40.00;;;;;;;;;;5062647;28;20064;-64
2023/05/27 09:02:47;;;;;;;53.30;40.08;;;;;;;;;;5055759;28;20024;-64
2023/05/27 10:23:53;;;;;;;62.25;45.97;;;;;;;;;;5091988;27;20398;-63
2023/05/27 10:26:21;;;;;;;58.28;43.25;;;;;;;;;;5090810;28;20437;-64
2023/05/27 10:28:47;;;;;;;65.32;47.45;;;;;;;;;;5090657;28;20027;-65
2023/05/27 10:31:16;;;;;;;73.20;53.58;;;;;;;;;;5090972;28;20016;-63
2023/05/27 10:33:45;;;;;;;129.93;90.47;;;;;;;;;;5090783;28;20023;-67
2023/05/27 10:36:13;;;;;;;112.55;80.15;;;;;;;;;;5080318;28;20017;-67
2023/05/27 10:38:41;;;;;;;115.97;83.80;;;;;;;;;;5072234;28;20031;-68
2023/05/27 10:41:09;;;;;;;137.68;85.80;;;;;;;;;;5090594;28;20023;-68
2023/05/27 10:43:36;;;;;;;122.82;86.85;;;;;;;;;;5090988;28;20115;-68
2023/05/27 10:46:03;;;;;;;97.97;70.20;;;;;;;;;;5090747;28;20016;-69
2023/05/27 10:48:33;;;;;;;81.43;58.10;;;;;;;;;;5090521;28;20113;-67
2023/05/27 10:51:00;;;;;;;109.03;70.72;;;;;;;;;;5090537;28;20032;-67
2023/05/27 10:53:28;;;;;;;101.50;67.47;;;;;;;;;;5090654;28;20036;-68
2023/05/27 10:55:56;;;;;;;87.20;57.28;;;;;;;;;;5090425;28;20434;-67
2023/05/27 10:58:22;;;;;;;366.30;265.70;;;;;;;;;;5077060;28;20032;-67
2023/05/27 11:00:50;;;;;;;158.15;100.78;;;;;;;;;;5081531;28;20020;-67
2023/05/27 11:03:26;;;;;;;103.57;62.03;;;;;;;;;;5080056;28;20012;-68
2023/05/27 11:06:01;;;;;;;106.30;63.03;;;;;;;;;;5080000;28;20017;-68
2023/05/27 11:08:28;;;;;;;102.53;61.80;;;;;;;;;;5079302;28;20025;-67
2023/05/27 11:11:04;;;;;;;84.53;55.15;;;;;;;;;;5078013;28;20041;-66
2023/05/27 11:13:31;;;;;;;80.57;52.88;;;;;;;;;;5078894;28;20350;-67
2023/05/27 11:15:58;;;;;;;109.70;77.78;;;;;;;;;;5080317;28;20027;-67
2023/05/27 11:18:24;;;;;;;102.25;66.50;;;;;;;;;;5078329;28;20048;-69
2023/05/27 11:20:51;;;;;;;96.20;64.95;;;;;;;;;;5078268;28;20512;-69
2023/05/27 11:23:18;;;;;;;86.07;62.25;;;;;;;;;;5080036;28;20056;-70
2023/05/27 11:25:45;;;;;;;83.40;58.00;;;;;;;;;;5078033;28;20474;-68
2023/05/27 11:28:20;;;;;;;108.25;75.13;;;;;;;;;;5076942;28;20058;-69
2023/05/27 11:30:47;;;;;;;67.60;45.88;;;;;;;;;;5076614;28;20053;-69
2023/05/27 11:33:14;;;;;;;63.13;44.05;;;;;;;;;;5074927;28;20059;-68
2023/05/27 11:35:41;;;;;;;68.40;43.95;;;;;;;;;;5066009;28;20094;-67
2023/05/27 11:38:18;;;;;;;60.72;41.83;;;;;;;;;;5070695;28;20492;-68
2023/05/27 11:40:44;;;;;;;64.82;43.72;;;;;;;;;;5072404;28;20086;-68
2023/05/27 11:43:18;;;;;;;62.38;43.00;;;;;;;;;;5065038;28;20031;-68
2023/05/27 11:45:45;;;;;;;59.28;40.42;;;;;;;;;;5065733;28;20008;-71
2023/05/27 11:48:12;;;;;;;53.92;38.33;;;;;;;;;;5064368;28;20351;-70
2023/05/27 11:50:38;;;;;;;59.63;39.13;;;;;;;;;;5064101;28;20458;-70
2023/05/27 11:53:05;;;;;;;76.72;46.05;;;;;;;;;;5065612;28;20021;-72
2023/05/27 11:55:32;;;;;;;70.97;41.13;;;;;;;;;;5064208;28;20446;-71
2023/05/27 11:57:58;;;;;;;107.00;70.47;;;;;;;;;;5063971;28;20017;-78
2023/05/27 12:00:25;;;;;;;86.03;50.90;;;;;;;;;;5065456;28;20024;-71
2023/05/27 12:02:52;;;;;;;81.68;46.55;;;;;;;;;;5062881;28;20024;-70
2023/05/27 12:05:19;;;;;;;120.93;76.47;;;;;;;;;;5064843;28;20023;-70
2023/05/27 12:07:46;;;;;;;80.93;50.38;;;;;;;;;;5065319;28;20362;-70
2023/05/27 12:10:12;;;;;;;103.95;66.00;;;;;;;;;;5063034;28;20074;-67
2023/05/27 12:12:41;;;;;;;67.75;42.10;;;;;;;;;;5055568;28;20498;-67
2023/05/27 12:15:08;;;;;;;71.00;42.20;;;;;;;;;;5055653;28;20033;-67
2023/05/27 12:17:35;;;;;;;61.17;42.47;;;;;;;;;;5055490;28;20363;-65
2023/05/27 12:20:01;;;;;;;64.15;42.92;;;;;;;;;;5061022;28;20123;-65
2023/05/27 12:22:28;;;;;;;69.60;45.53;;;;;;;;;;5060755;28;20175;-65
2023/05/27 12:24:55;;;;;;;67.20;43.75;;;;;;;;;;5062034;28;20017;-67
2023/05/27 12:27:22;;;;;;;67.15;44.47;;;;;;;;;;5066007;28;20473;-67
2023/05/27 12:29:49;;;;;;;97.15;63.20;;;;;;;;;;5073916;23;20061;-65
2023/05/27 12:32:16;;;;;;;93.95;54.30;;;;;;;;;;5045375;28;20061;-66
2023/05/27 12:34:43;;;;;;;87.80;52.55;;;;;;;;;;5042918;28;20026;-66
2023/05/27 12:37:10;;;;;;;85.53;54.55;;;;;;;;;;5046543;28;20025;-65
2023/05/27 12:39:37;;;;;;;93.22;57.28;;;;;;;;;;5047238;28;20021;-66
2023/05/27 12:42:03;;;;;;;92.55;61.90;;;;;;;;;;5036184;28;20025;-64
2023/05/27 12:44:30;;;;;;;70.38;46.85;;;;;;;;;;5041394;28;20021;-65
2023/05/27 12:46:57;;;;;;;48.47;32.65;;;;;;;;;;5041690;28;20030;-66
2023/05/27 12:49:23;;;;;;;46.58;33.55;;;;;;;;;;5040733;28;20485;-67
2023/05/27 12:51:50;;;;;;;54.58;36.65;;;;;;;;;;5022798;28;20038;-66
2023/05/27 12:54:17;;;;;;;68.38;42.50;;;;;;;;;;5032522;28;20026;-67
2023/05/27 12:56:44;;;;;;;75.07;50.85;;;;;;;;;;5030967;28;20029;-68
2023/05/27 12:59:11;;;;;;;66.65;42.85;;;;;;;;;;5017913;28;20022;-66
2023/05/27 13:01:38;;;;;;;85.00;52.70;;;;;;;;;;5015444;28;20490;-66
2023/05/27 13:04:04;;;;;;;73.57;43.92;;;;;;;;;;5015377;28;20038;-67
2023/05/27 13:06:31;;;;;;;88.43;48.30;;;;;;;;;;5017518;28;20386;-66
2023/05/27 13:08:58;;;;;;;86.57;50.42;;;;;;;;;;5024363;28;20018;-66
2023/05/27 13:11:26;;;;;;;76.60;47.63;;;;;;;;;;5026937;28;20018;-66
2023/05/27 13:13:52;;;;;;;51.70;35.35;;;;;;;;;;5020495;28;20040;-68
2023/05/27 13:16:19;;;;;;;66.25;44.38;;;;;;;;;;5014896;28;20032;-67
2023/05/27 13:18:46;;;;;;;70.18;47.80;;;;;;;;;;5014873;28;20029;-67
2023/05/27 13:21:13;;;;;;;58.55;40.22;;;;;;;;;;5015297;28;20502;-68
2023/05/27 13:23:40;;;;;;;61.13;44.72;;;;;;;;;;5019986;28;20048;-68
2023/05/27 13:26:07;;;;;;;58.75;38.10;;;;;;;;;;5025932;28;20037;-67
2023/05/27 13:28:34;;;;;;;61.35;40.95;;;;;;;;;;5028428;28;20180;-67
2023/05/27 13:31:01;;;;;;;45.38;30.88;;;;;;;;;;5036136;28;20450;-66
2023/05/27 13:33:28;;;;;;;39.33;29.85;;;;;;;;;;5034966;28;20037;-66
2023/05/27 13:35:55;;;;;;;36.08;25.17;;;;;;;;;;5032937;28;20041;-66
2023/05/27 13:38:21;;;;;;;27.92;23.25;;;;;;;;;;5021096;28;20587;-67
2023/05/27 13:40:48;;;;;;;49.08;37.42;;;;;;;;;;5038080;28;20466;-65
2023/05/27 13:43:15;;;;;;;49.08;35.78;;;;;;;;;;5043445;28;20032;-68
2023/05/27 13:45:42;;;;;;;45.00;30.63;;;;;;;;;;5043367;28;20053;-67
2023/05/27 13:48:08;;;;;;;46.05;33.88;;;;;;;;;;5042265;28;20037;-68
2023/05/27 13:50:36;;;;;;;96.28;70.88;;;;;;;;;;5025696;28;20385;-67
2023/05/27 13:53:02;;;;;;;83.15;59.83;;;;;;;;;;5040030;28;20021;-69
2023/05/27 13:55:29;;;;;;;26.75;21.77;;;;;;;;;;5042912;28;20092;-67
2023/05/27 13:57:56;;;;;;;27.50;21.45;;;;;;;;;;5041383;28;20394;-66
2023/05/27 14:00:22;;;;;;;27.08;21.20;;;;;;;;;;5042285;28;20017;-66
2023/05/27 14:02:49;;;;;;;26.92;20.58;;;;;;;;;;5043853;28;20025;-66
2023/05/27 14:05:16;;;;;;;25.70;19.73;;;;;;;;;;5042519;28;20021;-67
2023/05/27 14:07:45;;;;;;;27.15;20.88;;;;;;;;;;5041947;28;20032;-65
2023/05/27 14:10:12;;;;;;;39.13;24.73;;;;;;;;;;5043079;28;20065;-64
2023/05/27 14:12:39;;;;;;;36.63;22.98;;;;;;;;;;5042538;28;20111;-66
2023/05/27 14:15:06;;;;;;;27.85;21.02;;;;;;;;;;5043289;28;20029;-66
2023/05/27 14:17:33;;;;;;;40.92;30.25;;;;;;;;;;5041910;28;20221;-67
2023/05/27 14:20:00;;;;;;;52.47;36.25;;;;;;;;;;5042779;28;20125;-67
2023/05/27 14:22:27;;;;;;;42.00;29.83;;;;;;;;;;5043255;28;20029;-67
2023/05/27 14:24:53;;;;;;;54.00;37.22;;;;;;;;;;5042146;28;20026;-67
2023/05/27 14:27:20;;;;;;;50.78;31.90;;;;;;;;;;5042433;28;20074;-66
2023/05/27 14:29:47;;;;;;;42.38;27.88;;;;;;;;;;5043690;28;20052;-67
2023/05/27 14:32:14;;;;;;;44.70;30.30;;;;;;;;;;5041801;28;20037;-67
2023/05/27 14:34:40;;;;;;;36.15;24.85;;;;;;;;;;5039594;28;20022;-67
2023/05/27 14:37:07;;;;;;;42.10;25.65;;;;;;;;;;5035637;28;20069;-66
2023/05/27 14:39:34;;;;;;;48.53;27.25;;;;;;;;;;5042640;28;20040;-67
2023/05/27 14:42:01;;;;;;;45.60;28.23;;;;;;;;;;5043740;28;20026;-66
2023/05/27 14:44:27;;;;;;;60.78;30.63;;;;;;;;;;5034477;28;20030;-65
2023/05/27 14:46:54;;;;;;;55.38;31.23;;;;;;;;;;5038896;28;20024;-66
2023/05/27 14:49:21;;;;;;;41.65;27.48;;;;;;;;;;5042470;28;20021;-65
2023/05/27 14:51:47;;;;;;;39.67;26.42;;;;;;;;;;5043717;28;20017;-66
2023/05/27 14:54:14;;;;;;;32.60;24.80;;;;;;;;;;5041942;28;20405;-66
2023/05/27 14:56:41;;;;;;;36.35;26.38;;;;;;;;;;5042473;28;20025;-66
2023/05/27 14:59:08;;;;;;;43.15;26.55;;;;;;;;;;5043614;28;20094;-66
2023/05/27 15:01:34;;;;;;;34.08;25.33;;;;;;;;;;5040719;28;20025;-67
2023/05/27 15:04:01;;;;;;;30.35;24.27;;;;;;;;;;5041192;28;20402;-67
2023/05/27 15:06:28;;;;;;;31.05;24.42;;;;;;;;;;5043459;28;20025;-67
2023/05/27 15:08:55;;;;;;;38.85;26.83;;;;;;;;;;5043361;28;20582;-67
2023/05/27 15:11:22;;;;;;;33.08;25.75;;;;;;;;;;5046031;28;20025;-64
2023/05/27 15:13:48;;;;;;;35.47;28.90;;;;;;;;;;5043410;28;20033;-65
2023/05/27 15:16:15;;;;;;;36.80;26.75;;;;;;;;;;5029943;28;20033;-66
2023/05/27 15:18:42;;;;;;;36.13;27.02;;;;;;;;;;5022284;28;20075;-65
2023/05/27 15:21:09;;;;;;;42.40;27.30;;;;;;;;;;5016354;28;20022;-65
2023/05/27 15:23:36;;;;;;;35.53;28.70;;;;;;;;;;5016061;28;20069;-66
2023/05/27 15:26:02;;;;;;;38.10;27.77;;;;;;;;;;5016338;28;20018;-67
2023/05/27 15:28:29;;;;;;;38.30;28.17;;;;;;;;;;5024914;28;20029;-67
2023/05/27 15:30:56;;;;;;;45.38;30.17;;;;;;;;;;5035748;28;20029;-67
2023/05/27 15:33:23;;;;;;;48.15;31.52;;;;;;;;;;5036210;28;20443;-67
2023/05/27 15:35:49;;;;;;;46.13;31.17;;;;;;;;;;5035969;28;20032;-66
2023/05/27 15:38:16;;;;;;;44.33;31.80;;;;;;;;;;5035853;28;20406;-66